^^
 
Daily Summary for April 10, 2020 Units:  English    Metric   Both
Daily Weekly Monthly Yearly Custom
  Current: High: Low: Average:
Temperature: 48.4 °F 49.3 °F 48.4 °F 49 °F
Dew Point: 44.4 °F 45 °F 44.4 °F 44.7 °F
Humidity: 86% 86% 84.4% 85%
Wind Speed: 0mph 2.1mph 0mph 0.2mph
Wind Gust: 0mph 3mph - -
WindCalm - - SSE
Pressure: 30.05 in 30.07 in 30.05 in -
Precipitation: 0.00 in      
Historical Graphs
 
 
Tabular Data for April 10, 2020
Time Temperature Dew Point Pressure Wind Wind Speed Wind Gust Humidity Rainfall Rate (Hourly) solar
00:04 49.3 °F 44.8 °F 30.07 in Calm     84.5% 0.00 in 0 W/m2
00:09 49.3 °F 45 °F 30.07 in Calm     85% 0.00 in 0 W/m2
00:14 49.3 °F 45 °F 30.06 in Calm     85% 0.00 in 0 W/m2
00:19 49.2 °F 44.9 °F 30.06 in Calm     85% 0.00 in 0 W/m2
00:24 49.2 °F 44.9 °F 30.07 in Calm     85% 0.00 in 0 W/m2
00:29 49.2 °F 44.9 °F 30.07 in Calm     85% 0.00 in 0 W/m2
00:34 49.2 °F 44.9 °F 30.07 in Calm     85% 0.00 in 0 W/m2
00:39 49.2 °F 44.9 °F 30.07 in Calm     85% 0.00 in 0 W/m2
00:44 49.1 °F 44.6 °F 30.07 in Calm     84.4% 0.00 in 0 W/m2
00:49 49.1 °F 44.7 °F 30.07 in Calm     84.8% 0.00 in 0 W/m2
00:54 49.1 °F 44.8 °F 30.07 in Calm     85% 0.00 in 0 W/m2
00:59 49.1 °F 44.8 °F 30.07 in Calm     85% 0.00 in 0 W/m2
01:04 49 °F 44.7 °F 30.07 in Calm     85% 0.00 in 0 W/m2
01:09 49 °F 44.7 °F 30.07 in Calm     85% 0.00 in 0 W/m2
01:14 49 °F 44.7 °F 30.06 in Calm     85% 0.00 in 0 W/m2
01:19 49 °F 44.7 °F 30.06 in Calm     85% 0.00 in 0 W/m2
01:24 48.9 °F 44.6 °F 30.07 in Calm     85% 0.00 in 0 W/m2
01:29 48.9 °F 44.6 °F 30.07 in Calm     85% 0.00 in 0 W/m2
01:34 48.9 °F 44.6 °F 30.07 in Calm     85% 0.00 in 0 W/m2
01:39 48.8 °F 44.5 °F 30.06 in Calm     85% 0.00 in 0 W/m2
01:44 48.8 °F 44.5 °F 30.06 in Calm     85% 0.00 in 0 W/m2
01:49 48.8 °F 44.5 °F 30.06 in Calm     85% 0.00 in 0 W/m2
01:54 48.7 °F 44.4 °F 30.07 in South 0.8 mph 0.7 mph 85% 0.00 in 0 W/m2
01:59 48.7 °F 44.4 °F 30.07 in ESE 2.1 mph 3 mph 85% 0.00 in 0 W/m2
02:04 48.6 °F 44.4 °F 30.06 in South 1.7 mph 3 mph 85.4% 0.00 in 0 W/m2
02:09 48.5 °F 44.5 °F 30.06 in Calm   2 mph 86% 0.00 in 0 W/m2
02:14 48.5 °F 44.5 °F 30.05 in Calm     86% 0.00 in 0 W/m2
02:18 48.4 °F 44.4 °F 30.05 in Calm     86% 0.00 in 0 W/m2
El Dorado Weather
Compliments of Weather Underground - 1.5 mb